Time;durP1;ratioP1;P1;durP2;ratioP2;P2;SDS_P1;SDS_P2;PMS_P1;PMS_P2;Temp;Humidity;BMP_temperature;BMP_pressure;BME280_temperature;BME280_humidity;BME280_pressure;Samples;Min_cycle;Max_cycle;Signal;HPM_P1;HPM_P2
2023/05/13 00:00:12;;;;;;;11.05;8.60;;;10.80;99.90;;;;;;5134058;27;20179;-72
2023/05/13 00:02:38;;;;;;;11.63;8.40;;;10.60;99.90;;;;;;5135061;27;20210;-72
2023/05/13 00:05:04;;;;;;;10.07;8.70;;;10.50;99.90;;;;;;5133749;27;20547;-72
2023/05/13 00:07:30;;;;;;;12.45;8.82;;;10.60;99.90;;;;;;5133880;27;20191;-72
2023/05/13 00:09:56;;;;;;;10.00;8.23;;;10.60;99.90;;;;;;5135383;27;20197;-72
2023/05/13 00:12:21;;;;;;;10.02;8.55;;;10.40;99.90;;;;;;5135132;27;20196;-72
2023/05/13 00:14:47;;;;;;;9.98;8.05;;;10.40;99.90;;;;;;5135108;27;20171;-72
2023/05/13 00:17:13;;;;;;;11.80;9.32;;;10.40;99.90;;;;;;5133206;27;20176;-72
2023/05/13 00:19:39;;;;;;;10.90;9.20;;;10.60;99.90;;;;;;5134920;27;20175;-72
2023/05/13 00:22:05;;;;;;;13.63;9.95;;;10.70;99.90;;;;;;5135246;27;20224;-71
2023/05/13 00:24:31;;;;;;;12.27;9.55;;;10.70;99.90;;;;;;5134983;27;20167;-72
2023/05/13 00:26:57;;;;;;;14.07;10.50;;;10.70;99.90;;;;;;5134894;27;20168;-72
2023/05/13 00:29:23;;;;;;;11.88;9.90;;;10.80;99.90;;;;;;5134946;27;20167;-72
2023/05/13 00:31:49;;;;;;;11.75;10.55;;;10.80;99.90;;;;;;5133639;27;20726;-72
2023/05/13 00:34:15;;;;;;;14.52;11.18;;;10.60;99.90;;;;;;5135144;27;20168;-72
2023/05/13 00:36:41;;;;;;;14.50;11.15;;;10.50;99.90;;;;;;5134699;27;20183;-72
2023/05/13 00:39:07;;;;;;;12.80;10.43;;;10.50;99.90;;;;;;5134947;27;20179;-72
2023/05/13 00:41:32;;;;;;;12.90;10.68;;;10.40;99.90;;;;;;5133351;27;20259;-72
2023/05/13 00:43:58;;;;;;;12.50;9.27;;;10.30;99.90;;;;;;5133670;27;20192;-72
2023/05/13 00:46:24;;;;;;;12.50;8.98;;;10.20;99.90;;;;;;5135072;27;20243;-71
2023/05/13 00:48:50;;;;;;;11.15;9.02;;;10.10;99.90;;;;;;5134696;27;20172;-72
2023/05/13 00:51:17;;;;;;;10.57;8.75;;;10.00;99.90;;;;;;5134581;27;20176;-72
2023/05/13 00:53:43;;;;;;;10.00;8.93;;;10.00;99.90;;;;;;5134803;27;20195;-71
2023/05/13 00:56:09;;;;;;;10.20;9.00;;;10.00;99.90;;;;;;5134577;27;20179;-71
2023/05/13 00:58:35;;;;;;;10.75;9.60;;;10.10;99.90;;;;;;5133157;27;20267;-72
2023/05/13 01:01:35;;;;;;;16.67;10.02;;;10.20;99.90;;;;;;5134338;27;20284;-72
2023/05/13 01:04:07;;;;;;;12.75;10.30;;;10.30;99.90;;;;;;5135588;28;20175;-72
2023/05/13 01:06:43;;;;;;;15.52;10.68;;;10.40;99.90;;;;;;5138118;27;20179;-71
2023/05/13 01:09:32;;;;;;;11.35;10.00;;;10.40;99.90;;;;;;5139239;27;20148;-70
2023/05/13 01:12:07;;;;;;;16.92;11.48;;;10.50;99.90;;;;;;5136340;27;20604;-70
2023/05/13 01:14:40;;;;;;;21.33;11.50;;;10.50;99.90;;;;;;5133085;27;20220;-70
2023/05/13 01:17:14;;;;;;;16.23;12.05;;;10.40;99.90;;;;;;5134840;28;20224;-70
2023/05/13 01:19:53;;;;;;;15.23;11.45;;;10.30;99.90;;;;;;5132971;27;20266;-70
2023/05/13 01:22:19;;;;;;;21.05;11.80;;;10.10;99.90;;;;;;5134460;27;20225;-70
2023/05/13 01:24:45;;;;;;;23.80;12.68;;;9.90;99.90;;;;;;5133041;27;20180;-70
2023/05/13 01:27:11;;;;;;;16.20;11.65;;;9.90;99.90;;;;;;5134506;27;20172;-70
2023/05/13 01:29:37;;;;;;;17.85;10.68;;;9.70;99.90;;;;;;5138118;27;20632;-70
2023/05/13 01:32:04;;;;;;;15.75;11.02;;;9.70;99.90;;;;;;5138294;27;20199;-70
2023/05/13 01:34:31;;;;;;;16.23;10.60;;;9.60;99.90;;;;;;5138290;27;20229;-72
2023/05/13 01:36:58;;;;;;;15.75;10.45;;;9.60;99.90;;;;;;5116369;28;20663;-70
2023/05/13 01:39:24;;;;;;;14.88;10.30;;;9.70;99.90;;;;;;5116648;28;20633;-70
2023/05/13 01:41:50;;;;;;;15.48;11.70;;;9.80;99.90;;;;;;5116712;28;20741;-73
2023/05/13 01:44:16;;;;;;;20.50;11.65;;;9.80;99.90;;;;;;5116754;28;20271;-73
2023/05/13 01:46:43;;;;;;;14.43;10.85;;;9.90;99.90;;;;;;5117908;28;20188;-73
2023/05/13 01:49:09;;;;;;;15.30;11.13;;;9.90;99.90;;;;;;5116483;28;20633;-73
2023/05/13 01:51:39;;;;;;;17.83;11.13;;;10.00;99.90;;;;;;5116109;28;20279;-73
2023/05/13 01:54:04;;;;;;;15.57;11.25;;;10.00;99.90;;;;;;5118290;28;20516;-72
2023/05/13 01:56:30;;;;;;;20.13;11.95;;;10.00;99.90;;;;;;5117564;28;20168;-73
2023/05/13 01:58:56;;;;;;;14.70;10.65;;;10.00;99.90;;;;;;5117223;28;20637;-73
2023/05/13 02:01:22;;;;;;;13.80;11.25;;;10.00;99.90;;;;;;5115798;28;20721;-73
2023/05/13 02:03:48;;;;;;;15.45;12.00;;;10.00;99.90;;;;;;5117145;28;20200;-72
2023/05/13 02:06:14;;;;;;;14.63;11.25;;;9.80;99.90;;;;;;5131729;27;20203;-73
2023/05/13 02:08:39;;;;;;;12.20;10.88;;;9.70;99.90;;;;;;5138002;27;20179;-73
2023/05/13 02:11:05;;;;;;;14.85;10.90;;;9.70;99.90;;;;;;5137600;27;20199;-73
2023/05/13 02:13:31;;;;;;;12.93;10.55;;;9.70;99.90;;;;;;5137451;27;20543;-73
2023/05/13 02:15:57;;;;;;;26.10;12.35;;;9.70;99.90;;;;;;5136292;27;20187;-73
2023/05/13 02:18:22;;;;;;;15.23;11.65;;;9.70;99.90;;;;;;5138039;27;20225;-73
2023/05/13 02:20:48;;;;;;;17.48;12.38;;;9.50;99.90;;;;;;5137173;27;20198;-73
2023/05/13 02:23:15;;;;;;;15.60;11.73;;;9.40;99.90;;;;;;5136301;27;20672;-73
2023/05/13 02:25:41;;;;;;;22.40;13.02;;;9.40;99.90;;;;;;5137845;27;20236;-73
2023/05/13 02:28:07;;;;;;;18.02;13.05;;;9.30;99.90;;;;;;5136493;27;20176;-73
2023/05/13 02:30:32;;;;;;;18.40;12.52;;;9.30;99.90;;;;;;5137816;27;20172;-73
2023/05/13 02:32:59;;;;;;;20.95;13.85;;;9.20;99.90;;;;;;5135822;27;20192;-73
2023/05/13 02:35:28;;;;;;;27.27;13.40;;;9.20;99.90;;;;;;5137036;27;20644;-73
2023/05/13 02:37:54;;;;;;;22.05;13.38;;;9.20;99.90;;;;;;5135814;27;20524;-73
2023/05/13 02:40:20;;;;;;;25.02;13.52;;;9.20;99.90;;;;;;5136487;27;20708;-73
2023/05/13 02:42:46;;;;;;;32.53;12.75;;;9.10;99.90;;;;;;5137403;27;20608;-72
2023/05/13 02:45:12;;;;;;;41.15;14.20;;;9.10;99.90;;;;;;5137051;27;20171;-73
2023/05/13 02:47:38;;;;;;;34.42;12.95;;;9.10;99.90;;;;;;5136908;27;20619;-73
2023/05/13 02:50:06;;;;;;;24.92;12.70;;;9.00;99.90;;;;;;5137127;27;20225;-73
2023/05/13 02:52:35;;;;;;;34.13;14.30;;;9.00;99.90;;;;;;5136798;27;20244;-73
2023/05/13 02:55:02;;;;;;;35.55;13.82;;;9.00;99.90;;;;;;5135400;27;20176;-73
2023/05/13 02:57:28;;;;;;;25.17;12.20;;;8.90;99.90;;;;;;5136785;27;20250;-73
2023/05/13 02:59:53;;;;;;;39.75;12.75;;;8.90;99.90;;;;;;5136594;27;20196;-73
2023/05/13 03:02:19;;;;;;;17.40;11.57;;;8.90;99.90;;;;;;5135057;27;20212;-73
2023/05/13 03:04:46;;;;;;;15.65;12.38;;;8.90;99.90;;;;;;5135283;27;20171;-73
2023/05/13 03:07:11;;;;;;;19.80;12.50;;;9.10;99.90;;;;;;5136450;27;20171;-73
2023/05/13 03:09:38;;;;;;;20.50;13.10;;;9.20;99.90;;;;;;5135171;27;20172;-73
2023/05/13 03:12:07;;;;;;;13.30;11.85;;;9.20;99.90;;;;;;5136449;27;20192;-73
2023/05/13 03:14:35;;;;;;;17.27;11.57;;;9.30;99.90;;;;;;5136456;27;20172;-73
2023/05/13 03:17:04;;;;;;;17.17;12.07;;;9.40;99.90;;;;;;5136288;27;20655;-73
2023/05/13 03:19:30;;;;;;;15.63;12.48;;;9.40;99.90;;;;;;5136197;27;20243;-73
2023/05/13 03:21:56;;;;;;;19.58;12.05;;;9.40;99.90;;;;;;5134511;27;20277;-73
2023/05/13 03:24:22;;;;;;;15.63;11.80;;;9.30;99.90;;;;;;5136124;27;20171;-73
2023/05/13 03:26:48;;;;;;;18.83;12.02;;;9.20;99.90;;;;;;5136096;27;20172;-72
2023/05/13 03:29:13;;;;;;;20.63;12.65;;;9.20;99.90;;;;;;5136499;27;20196;-73
2023/05/13 03:31:39;;;;;;;39.83;12.63;;;9.00;99.90;;;;;;5134697;27;20280;-73
2023/05/13 03:34:05;;;;;;;19.02;11.45;;;8.90;99.90;;;;;;5136257;27;20262;-73
2023/05/13 03:36:31;;;;;;;32.08;13.10;;;8.90;99.90;;;;;;5134422;27;20723;-73
2023/05/13 03:38:57;;;;;;;24.65;12.88;;;8.80;99.90;;;;;;5134527;27;20245;-73
2023/05/13 03:41:23;;;;;;;18.67;12.18;;;8.80;99.90;;;;;;5134345;27;20245;-73
2023/05/13 03:43:48;;;;;;;29.48;13.75;;;8.80;99.90;;;;;;5134455;27;20186;-73
2023/05/13 03:46:15;;;;;;;34.72;13.27;;;8.80;99.90;;;;;;5135756;27;20167;-73
2023/05/13 03:48:40;;;;;;;15.95;12.40;;;8.70;99.90;;;;;;5134274;27;20186;-73
2023/05/13 03:51:06;;;;;;;14.85;12.50;;;8.80;99.90;;;;;;5134503;27;20215;-73
2023/05/13 03:53:32;;;;;;;15.43;13.27;;;8.90;99.90;;;;;;5135401;27;20222;-73
2023/05/13 03:55:58;;;;;;;19.65;12.50;;;8.90;99.90;;;;;;5135938;27;20526;-73
2023/05/13 03:58:23;;;;;;;20.48;12.98;;;9.00;99.90;;;;;;5135411;27;20182;-72
2023/05/13 04:00:49;;;;;;;16.10;11.95;;;9.00;99.90;;;;;;5135541;27;20195;-72
2023/05/13 04:03:16;;;;;;;19.90;12.45;;;9.00;99.90;;;;;;5135340;27;20195;-73
2023/05/13 04:05:42;;;;;;;16.48;12.85;;;9.10;99.90;;;;;;5135245;27;20179;-72
2023/05/13 04:08:10;;;;;;;16.35;12.50;;;9.10;99.90;;;;;;5135293;27;20195;-72
2023/05/13 04:10:35;;;;;;;14.57;11.43;;;9.20;99.90;;;;;;5135159;27;20178;-73
2023/05/13 04:13:01;;;;;;;24.13;13.05;;;9.20;99.90;;;;;;5135235;27;20188;-73
2023/05/13 04:15:27;;;;;;;24.38;12.40;;;9.20;99.90;;;;;;5135259;27;20176;-73
2023/05/13 04:17:53;;;;;;;25.33;13.45;;;9.20;99.90;;;;;;5135129;27;20512;-73
2023/05/13 04:20:19;;;;;;;24.95;13.32;;;9.20;99.90;;;;;;5134957;27;20186;-73
2023/05/13 04:22:44;;;;;;;38.80;13.73;;;9.20;99.90;;;;;;5134026;27;20207;-73
2023/05/13 04:25:10;;;;;;;23.30;13.20;;;9.20;99.90;;;;;;5135224;27;20568;-72
2023/05/13 04:27:36;;;;;;;15.75;12.30;;;9.10;99.90;;;;;;5135500;27;20322;-73
2023/05/13 04:30:02;;;;;;;14.52;12.88;;;9.20;99.90;;;;;;5135176;27;20258;-72
2023/05/13 04:32:28;;;;;;;17.30;12.00;;;9.30;99.90;;;;;;5135269;27;20200;-71
2023/05/13 04:34:53;;;;;;;21.75;13.38;;;9.20;99.90;;;;;;5133440;27;20184;-70
2023/05/13 04:37:19;;;;;;;16.98;12.65;;;9.20;99.90;;;;;;5134610;27;20196;-70
2023/05/13 04:39:46;;;;;;;13.13;11.73;;;9.30;99.90;;;;;;5134908;27;20225;-70
2023/05/13 04:42:12;;;;;;;23.35;12.45;;;9.30;99.90;;;;;;5134470;27;20210;-70
2023/05/13 04:44:38;;;;;;;23.40;12.85;;;9.30;99.90;;;;;;5134920;27;20652;-70
2023/05/13 04:47:04;;;;;;;12.43;11.13;;;9.20;99.90;;;;;;5134541;27;20164;-70
2023/05/13 04:49:30;;;;;;;24.58;12.35;;;9.20;99.90;;;;;;5134642;27;20172;-70
2023/05/13 04:51:56;;;;;;;28.13;11.43;;;9.10;99.90;;;;;;5132977;27;20202;-70
2023/05/13 04:54:22;;;;;;;19.52;12.32;;;9.10;99.90;;;;;;5135150;27;20176;-70
2023/05/13 04:56:48;;;;;;;24.50;12.52;;;9.10;99.90;;;;;;5134625;27;20259;-68
2023/05/13 04:59:14;;;;;;;23.58;12.80;;;9.20;99.90;;;;;;5135434;27;20207;-72
2023/05/13 05:01:40;;;;;;;25.23;12.35;;;9.00;99.90;;;;;;5133326;27;20211;-72
2023/05/13 05:04:05;;;;;;;21.73;13.70;;;8.90;99.90;;;;;;5136050;27;20719;-72
2023/05/13 05:06:32;;;;;;;58.17;14.88;;;9.00;99.90;;;;;;5134142;27;20277;-73
2023/05/13 05:08:58;;;;;;;15.98;12.32;;;8.90;99.90;;;;;;5135407;27;20623;-72
2023/05/13 05:11:24;;;;;;;19.88;13.85;;;8.90;99.90;;;;;;5133898;28;20175;-72
2023/05/13 05:13:50;;;;;;;35.83;13.82;;;8.90;99.90;;;;;;5135061;27;20216;-72
2023/05/13 05:16:16;;;;;;;18.10;13.20;;;8.80;99.90;;;;;;5132977;27;20178;-72
2023/05/13 05:18:42;;;;;;;62.78;15.18;;;8.70;99.90;;;;;;5132927;28;20172;-71
2023/05/13 05:21:11;;;;;;;25.07;14.87;;;8.60;99.90;;;;;;5134145;27;20198;-71
2023/05/13 05:23:36;;;;;;;59.47;17.93;;;8.40;99.90;;;;;;5134464;27;20163;-71
2023/05/13 05:26:02;;;;;;;22.02;14.43;;;8.30;99.90;;;;;;5134130;27;20175;-71
2023/05/13 05:28:28;;;;;;;24.00;14.63;;;8.30;99.90;;;;;;5132812;27;20564;-71
2023/05/13 05:30:54;;;;;;;28.70;16.03;;;8.30;99.90;;;;;;5134336;27;20172;-71
2023/05/13 05:33:21;;;;;;;32.90;16.00;;;8.40;99.90;;;;;;5133897;27;20192;-71
2023/05/13 05:35:47;;;;;;;42.77;16.07;;;8.40;99.90;;;;;;5133850;27;20207;-71
2023/05/13 05:38:13;;;;;;;23.53;15.77;;;8.40;99.90;;;;;;5132763;27;20228;-71
2023/05/13 05:40:41;;;;;;;29.48;14.60;;;8.50;99.90;;;;;;5115631;28;20184;-71
2023/05/13 05:43:09;;;;;;;19.10;13.80;;;8.50;99.90;;;;;;5134231;27;20535;-71
2023/05/13 05:45:36;;;;;;;22.90;15.03;;;8.50;99.90;;;;;;5134316;27;20160;-71
2023/05/13 05:48:02;;;;;;;18.47;15.67;;;8.50;99.90;;;;;;5134280;27;20205;-71
2023/05/13 05:50:28;;;;;;;17.07;15.17;;;8.30;99.90;;;;;;5133738;27;20156;-71
2023/05/13 05:52:54;;;;;;;17.33;15.53;;;8.40;99.90;;;;;;5134056;27;20523;-71
2023/05/13 05:55:20;;;;;;;19.57;16.20;;;8.60;99.90;;;;;;5132642;28;20173;-71
2023/05/13 05:57:46;;;;;;;18.90;16.20;;;8.80;99.90;;;;;;5133882;27;20176;-71
2023/05/13 06:00:12;;;;;;;21.27;17.23;;;9.10;99.90;;;;;;5133854;27;20251;-71
2023/05/13 06:02:39;;;;;;;21.20;17.83;;;9.40;99.90;;;;;;5133544;27;20212;-71
2023/05/13 06:05:05;;;;;;;22.25;17.92;;;9.70;99.90;;;;;;5133753;27;20180;-71
2023/05/13 06:07:31;;;;;;;21.75;17.00;;;10.00;99.90;;;;;;5133544;27;20175;-71
2023/05/13 06:09:56;;;;;;;20.38;16.23;;;10.20;99.90;;;;;;5132505;27;20255;-71
2023/05/13 06:12:22;;;;;;;17.92;16.02;;;10.40;99.90;;;;;;5133622;27;20675;-71
2023/05/13 06:14:48;;;;;;;18.90;15.48;;;10.30;99.90;;;;;;5134573;27;20172;-71
2023/05/13 06:17:15;;;;;;;16.52;14.32;;;10.50;99.90;;;;;;5136443;27;20666;-69
2023/05/13 06:19:44;;;;;;;18.30;14.00;;;10.50;99.90;;;;;;5137410;27;20168;-69
2023/05/13 06:22:10;;;;;;;17.30;13.10;;;10.60;99.90;;;;;;5135750;27;20207;-69
2023/05/13 06:24:36;;;;;;;17.80;13.60;;;10.70;99.90;;;;;;5137639;27;20178;-69
2023/05/13 06:27:02;;;;;;;16.05;13.85;;;10.70;99.90;;;;;;5135855;27;20176;-70
2023/05/13 06:29:36;;;;;;;14.60;13.10;;;10.80;99.90;;;;;;5137074;27;20184;-70
2023/05/13 06:32:02;;;;;;;18.08;13.80;;;10.90;99.90;;;;;;5049557;22;20224;-83
2023/05/13 06:34:28;;;;;;;17.77;14.15;;;11.10;99.90;;;;;;4997214;28;20267;-83
2023/05/13 06:36:53;;;;;;;16.08;13.10;;;11.20;99.90;;;;;;4996916;28;20180;-83
2023/05/13 06:39:19;;;;;;;19.40;13.55;;;11.30;99.90;;;;;;4998039;28;20549;-83
2023/05/13 06:41:45;;;;;;;15.82;13.40;;;11.50;99.90;;;;;;4996398;28;20300;-83
2023/05/13 06:44:11;;;;;;;19.63;14.48;;;11.60;99.90;;;;;;4997784;28;20699;-83
2023/05/13 06:46:37;;;;;;;16.35;13.88;;;11.60;99.90;;;;;;4997645;28;20177;-83
2023/05/13 06:49:02;;;;;;;16.65;13.35;;;11.70;99.90;;;;;;4998335;28;20176;-83
2023/05/13 06:51:30;;;;;;;18.33;15.05;;;11.60;99.90;;;;;;4996323;28;20228;-83
2023/05/13 06:53:56;;;;;;;15.95;14.02;;;11.70;99.90;;;;;;4996881;28;20796;-83
2023/05/13 06:56:24;;;;;;;20.52;14.63;;;11.70;99.90;;;;;;4996662;28;20275;-83
2023/05/13 06:58:51;;;;;;;18.25;14.43;;;11.70;99.90;;;;;;4998183;28;20176;-83
2023/05/13 07:01:17;;;;;;;17.73;14.88;;;11.60;99.90;;;;;;4997472;28;20193;-83
2023/05/13 07:03:43;;;;;;;17.40;15.50;;;11.60;99.90;;;;;;4996745;28;20644;-83
2023/05/13 07:06:09;;;;;;;18.15;14.20;;;11.70;99.90;;;;;;4997802;28;20646;-83
2023/05/13 07:08:35;;;;;;;16.73;14.55;;;11.80;99.90;;;;;;4997689;28;20219;-83
2023/05/13 07:11:01;;;;;;;18.55;15.43;;;12.10;99.90;;;;;;4997279;28;20242;-83
2023/05/13 07:13:28;;;;;;;20.85;16.08;;;12.40;99.90;;;;;;4997870;28;20177;-83
2023/05/13 07:15:54;;;;;;;19.13;15.15;;;12.60;99.90;;;;;;4997702;28;20724;-83
2023/05/13 07:18:19;;;;;;;20.67;15.55;;;12.70;99.90;;;;;;4999119;28;20184;-83
2023/05/13 07:20:45;;;;;;;18.63;15.85;;;13.00;99.90;;;;;;4998553;28;20291;-83
2023/05/13 07:23:11;;;;;;;17.60;14.38;;;13.10;99.90;;;;;;4997815;28;20157;-83
2023/05/13 07:25:37;;;;;;;18.45;14.82;;;13.20;99.90;;;;;;4995873;28;20188;-83
2023/05/13 07:28:03;;;;;;;16.20;14.43;;;13.20;99.90;;;;;;4995483;28;20176;-83
2023/05/13 07:30:29;;;;;;;18.42;15.88;;;13.30;99.90;;;;;;4994443;28;20207;-82
2023/05/13 07:32:55;;;;;;;20.63;15.70;;;13.40;99.90;;;;;;4995511;28;20256;-81
2023/05/13 07:35:21;;;;;;;19.08;15.25;;;13.50;99.90;;;;;;4995182;28;20632;-81
2023/05/13 07:37:46;;;;;;;20.35;15.48;;;13.60;99.90;;;;;;4995077;28;20267;-81
2023/05/13 07:40:12;;;;;;;16.88;14.88;;;13.80;99.90;;;;;;4996869;28;20200;-81
2023/05/13 07:42:39;;;;;;;16.77;14.02;;;13.80;99.90;;;;;;4997169;28;20197;-81
2023/05/13 07:45:06;;;;;;;17.50;14.43;;;14.00;99.90;;;;;;4996758;28;20247;-80
2023/05/13 07:47:32;;;;;;;14.70;13.13;;;14.10;99.90;;;;;;4995623;28;20172;-80
2023/05/13 07:49:58;;;;;;;14.93;13.32;;;14.10;99.90;;;;;;4995453;28;20200;-80
2023/05/13 07:52:24;;;;;;;15.48;12.02;;;14.10;99.90;;;;;;4995406;28;20216;-80
2023/05/13 07:54:50;;;;;;;15.70;13.52;;;14.00;99.90;;;;;;4995755;28;20180;-80
2023/05/13 07:57:16;;;;;;;15.82;14.20;;;14.00;99.90;;;;;;4995108;28;20184;-81
2023/05/13 07:59:42;;;;;;;19.67;14.63;;;14.00;99.90;;;;;;4996219;28;20200;-81
2023/05/13 08:02:08;;;;;;;20.00;13.80;;;14.20;99.90;;;;;;4994898;28;20580;-81
2023/05/13 08:04:34;;;;;;;16.25;13.85;;;14.50;99.90;;;;;;4995115;28;20176;-81
2023/05/13 08:07:03;;;;;;;18.30;14.02;;;14.70;99.90;;;;;;4995933;28;20169;-81
2023/05/13 08:09:29;;;;;;;15.57;13.88;;;14.90;99.90;;;;;;4996236;28;20172;-81
2023/05/13 08:11:55;;;;;;;14.90;12.93;;;15.10;99.90;;;;;;4995973;28;20588;-81
2023/05/13 08:14:21;;;;;;;17.48;13.13;;;15.40;99.90;;;;;;4996055;28;20625;-81
2023/05/13 08:16:47;;;;;;;15.98;12.48;;;15.60;99.90;;;;;;4996293;28;20650;-81
2023/05/13 08:19:13;;;;;;;17.55;13.40;;;15.80;99.90;;;;;;4994585;28;20187;-81
2023/05/13 08:21:39;;;;;;;14.73;11.65;;;15.90;99.90;;;;;;4996349;28;20606;-81
2023/05/13 08:24:05;;;;;;;14.52;11.57;;;16.20;99.90;;;;;;4996968;28;20169;-81
2023/05/13 08:26:31;;;;;;;13.23;10.75;;;16.70;99.90;;;;;;4997251;28;20642;-81
2023/05/13 08:28:57;;;;;;;12.88;9.40;;;17.80;99.90;;;;;;5001848;28;20540;-81
2023/05/13 08:31:26;;;;;;;10.32;8.93;;;19.00;99.90;;;;;;5001627;28;20292;-81
2023/05/13 08:33:52;;;;;;;12.45;7.90;;;19.90;1.00;;;;;;5000026;28;20634;-81
2023/05/13 08:36:18;;;;;;;9.60;7.32;;;20.90;99.90;;;;;;4999469;28;20177;-81
2023/05/13 08:38:44;;;;;;;12.40;6.85;;;21.50;1.00;;;;;;4998194;28;20188;-81
2023/05/13 08:41:14;;;;;;;9.43;6.75;;;21.70;76.10;;;;;;4999546;28;20200;-81
2023/05/13 08:43:42;;;;;;;10.73;6.38;;;22.20;1.00;;;;;;4999478;28;20556;-81
2023/05/13 08:46:11;;;;;;;9.65;6.18;;;22.90;99.90;;;;;;4998214;28;20207;-81
2023/05/13 08:48:41;;;;;;;8.70;5.97;;;23.00;99.90;;;;;;4997883;28;20177;-81
2023/05/13 08:51:08;;;;;;;10.50;5.90;;;23.10;96.30;;;;;;4997460;28;20208;-81
2023/05/13 08:53:37;;;;;;;8.88;6.07;;;23.00;1.00;;;;;;4997696;28;20172;-81
2023/05/13 08:56:05;;;;;;;9.45;6.45;;;23.00;99.90;;;;;;4996784;28;20181;-81
2023/05/13 08:58:31;;;;;;;8.55;6.32;;;23.40;1.00;;;;;;4998570;28;20531;-81
2023/05/13 09:00:57;;;;;;;8.13;6.38;;;23.80;1.00;;;;;;4996538;28;20196;-81
2023/05/13 09:03:26;;;;;;;7.20;6.10;;;24.10;99.90;;;;;;4997822;28;20187;-81
2023/05/13 09:05:51;;;;;;;8.75;5.28;;;24.10;37.50;;;;;;4996027;28;20227;-81
2023/05/13 09:08:17;;;;;;;10.00;6.68;;;24.10;1.00;;;;;;4997241;28;20573;-81
2023/05/13 09:10:43;;;;;;;10.48;6.65;;;24.20;1.00;;;;;;4998209;28;20228;-81
2023/05/13 09:13:11;;;;;;;11.60;6.35;;;24.20;1.00;;;;;;4997365;28;20180;-81
2023/05/13 09:15:41;;;;;;;8.02;5.82;;;24.20;1.00;;;;;;4997871;28;20177;-81
2023/05/13 09:18:07;;;;;;;9.35;5.85;;;24.20;1.00;;;;;;4997499;28;20720;-81
2023/05/13 09:20:34;;;;;;;11.32;5.68;;;24.30;1.00;;;;;;4996765;28;20212;-81
2023/05/13 09:23:05;;;;;;;11.05;5.28;;;24.60;1.00;;;;;;4995288;28;20204;-82
2023/05/13 09:25:32;;;;;;;8.95;5.70;;;24.60;99.90;;;;;;4996883;28;20156;-82
2023/05/13 09:28:04;;;;;;;8.50;6.35;;;24.90;1.00;;;;;;4996567;28;20236;-81
2023/05/13 09:30:33;;;;;;;7.53;5.35;;;24.70;1.00;;;;;;4996624;28;20657;-81
2023/05/13 09:33:12;;;;;;;6.63;4.97;;;24.40;99.90;;;;;;4996199;28;20242;-81
2023/05/13 09:35:43;;;;;;;9.38;5.72;;;24.60;99.90;;;;;;4996415;28;20177;-82
2023/05/13 09:38:17;;;;;;;7.90;5.75;;;24.40;99.90;;;;;;4996609;28;20177;-82
2023/05/13 09:40:52;;;;;;;7.95;5.38;;;24.30;99.90;;;;;;4996571;28;20196;-83
2023/05/13 09:43:22;;;;;;;8.73;5.13;;;24.50;1.00;;;;;;4995548;28;20195;-82
2023/05/13 09:46:01;;;;;;;6.80;5.50;;;24.40;99.90;;;;;;4997536;28;20195;-82
2023/05/13 09:48:30;;;;;;;7.93;5.80;;;24.50;99.90;;;;;;5001895;28;20193;-82
2023/05/13 09:50:58;;;;;;;7.90;5.20;;;24.20;99.90;;;;;;5004126;28;20242;-81
2023/05/13 09:53:25;;;;;;;8.50;5.53;;;24.10;99.90;;;;;;5002078;28;20664;-82
2023/05/13 09:55:53;;;;;;;9.50;5.10;;;24.10;99.90;;;;;;4999086;28;20208;-82
2023/05/13 09:58:19;;;;;;;11.65;5.55;;;24.20;99.90;;;;;;4998741;28;20173;-83
2023/05/13 10:00:46;;;;;;;6.50;5.10;;;24.60;99.90;;;;;;4998871;28;20196;-82
2023/05/13 10:03:12;;;;;;;8.40;5.45;;;24.70;99.90;;;;;;4997763;28;20175;-82
2023/05/13 10:05:39;;;;;;;11.48;5.78;;;24.60;99.90;;;;;;4999458;28;20523;-82
2023/05/13 10:08:08;;;;;;;9.40;5.40;;;24.40;99.90;;;;;;4999203;28;20634;-82
2023/05/13 10:10:34;;;;;;;6.57;5.15;;;24.50;99.90;;;;;;4997960;28;20283;-82
2023/05/13 10:13:07;;;;;;;8.63;5.30;;;24.20;1.00;;;;;;4999596;28;20196;-82
2023/05/13 10:15:46;;;;;;;9.27;5.05;;;24.10;1.00;;;;;;4997978;28;20189;-81
2023/05/13 10:18:13;;;;;;;10.95;5.65;;;24.30;1.00;;;;;;4998235;28;20200;-82
2023/05/13 10:20:40;;;;;;;8.75;5.95;;;24.00;1.00;;;;;;4999420;28;20224;-82
2023/05/13 10:23:07;;;;;;;7.57;5.55;;;23.70;1.00;;;;;;4997102;28;20296;-82
2023/05/13 10:25:32;;;;;;;8.48;5.15;;;23.60;1.00;;;;;;4996619;28;20199;-83
2023/05/13 10:28:01;;;;;;;8.52;5.38;;;23.60;21.10;;;;;;4998379;28;20630;-82
2023/05/13 10:30:31;;;;;;;9.75;5.85;;;23.60;1.00;;;;;;4997161;28;20253;-82
2023/05/13 10:32:57;;;;;;;7.07;5.15;;;23.40;99.90;;;;;;4997489;28;20176;-82
2023/05/13 10:35:27;;;;;;;6.47;5.13;;;23.30;99.90;;;;;;4999906;28;20172;-82
2023/05/13 10:38:08;;;;;;;8.90;4.90;;;23.20;99.90;;;;;;4998507;28;20192;-82
2023/05/13 10:40:49;;;;;;;8.35;5.10;;;23.20;1.00;;;;;;4997531;28;20200;-82
2023/05/13 10:43:22;;;;;;;11.70;6.10;;;23.30;99.90;;;;;;4998107;28;20169;-82
2023/05/13 10:45:56;;;;;;;7.18;4.72;;;23.30;99.90;;;;;;4997454;28;20192;-82
2023/05/13 10:48:22;;;;;;;7.47;4.65;;;23.20;99.90;;;;;;4997293;28;20175;-82
2023/05/13 10:50:56;;;;;;;12.77;5.43;;;23.40;99.90;;;;;;4998688;28;20188;-82
2023/05/13 10:53:31;;;;;;;8.43;5.13;;;23.30;99.90;;;;;;4999970;28;20644;-82
2023/05/13 10:55:59;;;;;;;10.50;4.95;;;22.90;1.00;;;;;;4999294;28;20174;-82
2023/05/13 10:58:38;;;;;;;6.43;4.45;;;22.80;99.90;;;;;;4998296;28;20239;-83
2023/05/13 11:01:42;;;;;;;8.13;4.72;;;22.90;99.90;;;;;;4996650;28;20219;-82
2023/05/13 11:04:14;;;;;;;5.85;4.32;;;22.90;1.00;;;;;;4996770;28;20179;-82
2023/05/13 11:06:42;;;;;;;7.45;4.72;;;22.80;1.00;;;;;;4997216;28;20651;-82
2023/05/13 11:09:13;;;;;;;6.05;4.28;;;22.90;1.00;;;;;;4998221;28;20177;-82
2023/05/13 11:11:39;;;;;;;5.80;4.60;;;23.00;99.90;;;;;;4998242;28;20258;-82
2023/05/13 11:14:14;;;;;;;8.15;4.45;;;23.10;99.90;;;;;;4996188;28;20227;-82
2023/05/13 11:16:51;;;;;;;7.38;4.20;;;23.20;1.00;;;;;;4995851;28;20172;-82
2023/05/13 11:19:24;;;;;;;7.20;4.28;;;23.30;1.00;;;;;;4996896;28;20513;-82
2023/05/13 11:21:53;;;;;;;7.28;4.63;;;23.60;1.00;;;;;;4996755;28;20188;-82
2023/05/13 11:24:20;;;;;;;6.85;4.45;;;23.70;1.00;;;;;;4996973;28;20544;-82
2023/05/13 11:27:00;;;;;;;7.82;5.32;;;23.70;99.90;;;;;;4996902;28;20176;-82
2023/05/13 11:29:31;;;;;;;6.18;4.60;;;23.80;99.90;;;;;;4996333;28;20533;-82
2023/05/13 11:31:58;;;;;;;5.95;4.10;;;23.90;99.90;;;;;;4996260;28;20251;-82
2023/05/13 11:34:25;;;;;;;5.88;4.30;;;24.00;99.90;;;;;;4995255;28;20192;-82
2023/05/13 11:37:07;;;;;;;8.10;4.50;;;24.30;99.90;;;;;;4996579;28;20185;-83
2023/05/13 11:39:33;;;;;;;7.95;4.25;;;24.30;99.90;;;;;;4996241;28;20307;-83
2023/05/13 11:42:01;;;;;;;8.25;4.40;;;24.40;99.90;;;;;;4996879;28;20204;-83
2023/05/13 11:44:27;;;;;;;7.15;4.18;;;24.40;59.30;;;;;;4995952;28;20661;-83
2023/05/13 11:46:58;;;;;;;5.65;4.10;;;24.30;8.30;;;;;;4996831;28;20172;-82
2023/05/13 11:49:35;;;;;;;7.00;4.47;;;24.50;1.00;;;;;;4996108;28;20172;-83
2023/05/13 11:52:12;;;;;;;6.75;4.30;;;24.70;1.00;;;;;;4996824;28;20156;-83
2023/05/13 11:54:46;;;;;;;6.10;4.53;;;24.50;1.00;;;;;;4995765;28;20172;-83
2023/05/13 11:57:19;;;;;;;7.97;4.47;;;24.40;1.00;;;;;;4995332;28;20204;-83
2023/05/13 11:59:56;;;;;;;6.72;4.25;;;24.60;1.00;;;;;;4998442;28;20196;-84
2023/05/13 12:02:32;;;;;;;5.68;4.38;;;24.70;1.00;;;;;;5001981;28;20196;-84
2023/05/13 12:05:08;;;;;;;10.77;4.35;;;24.50;1.00;;;;;;5000376;28;20168;-83
2023/05/13 12:07:36;;;;;;;7.60;4.15;;;24.40;1.00;;;;;;5001612;28;20160;-83
2023/05/13 12:10:03;;;;;;;12.57;4.75;;;24.50;1.00;;;;;;4998883;28;20207;-83
2023/05/13 12:12:33;;;;;;;11.57;4.70;;;24.60;1.00;;;;;;4997563;28;20180;-83
2023/05/13 12:15:02;;;;;;;4.47;3.85;;;24.70;1.00;;;;;;4998774;28;20250;-83
2023/05/13 12:17:29;;;;;;;8.20;4.43;;;24.60;1.00;;;;;;4999317;28;20177;-83
2023/05/13 12:20:14;;;;;;;5.78;4.00;;;24.60;1.00;;;;;;4998288;28;20207;-82
2023/05/13 12:22:42;;;;;;;9.25;4.07;;;24.60;1.00;;;;;;4998062;28;20271;-81
2023/05/13 12:25:42;;;;;;;5.28;4.00;;;24.70;1.00;;;;;;4995316;28;20176;-81
2023/05/13 12:28:12;;;;;;;6.88;3.90;;;25.20;1.00;;;;;;4997018;28;20489;-81
2023/05/13 12:30:39;;;;;;;5.05;4.00;;;25.40;1.00;;;;;;4995522;28;20700;-81
2023/05/13 12:33:11;;;;;;;9.50;4.20;;;25.40;1.00;;;;;;4996770;28;20161;-81
2023/05/13 12:35:37;;;;;;;6.15;3.40;;;24.90;1.00;;;;;;4997100;28;20165;-80
2023/05/13 12:38:04;;;;;;;4.50;3.58;;;24.60;1.00;;;;;;4996038;28;20176;-80
2023/05/13 12:40:31;;;;;;;4.68;3.88;;;24.40;1.00;;;;;;4995252;28;20233;-81